Time;durP1;ratioP1;P1;durP2;ratioP2;P2;SDS_P1;SDS_P2;PMS_P1;PMS_P2;Temp;Humidity;BMP_temperature;BMP_pressure;BME280_temperature;BME280_humidity;BME280_pressure;Samples;Min_cycle;Max_cycle;Signal;HPM_P1;HPM_P2
2022/10/12 00:00:17;;;;;;;16.23;8.93;;;5.50;99.90;;;;;;5020302;28;20596;-85
2022/10/12 00:02:43;;;;;;;13.60;6.93;;;5.40;99.90;;;;;;5054835;28;20180;-85
2022/10/12 00:05:09;;;;;;;14.73;7.57;;;5.50;99.90;;;;;;5020321;28;20180;-85
2022/10/12 00:07:34;;;;;;;20.07;8.23;;;5.50;99.90;;;;;;5054793;28;20184;-85
2022/10/12 00:10:00;;;;;;;18.60;7.40;;;5.40;99.90;;;;;;5020108;28;20699;-86
2022/10/12 00:12:26;;;;;;;11.90;5.90;;;5.40;99.90;;;;;;5019899;28;20184;-85
2022/10/12 00:14:52;;;;;;;14.43;6.87;;;5.40;99.90;;;;;;5054536;28;20680;-85
2022/10/12 00:17:19;;;;;;;16.13;7.40;;;5.30;99.90;;;;;;5020211;28;20183;-86
2022/10/12 00:19:45;;;;;;;22.03;8.83;;;5.30;99.90;;;;;;5020450;28;20624;-85
2022/10/12 00:22:11;;;;;;;23.90;7.43;;;5.20;99.90;;;;;;5054406;28;20187;-86
2022/10/12 00:24:36;;;;;;;19.27;8.33;;;5.20;99.90;;;;;;5020353;28;20187;-86
2022/10/12 00:27:02;;;;;;;21.97;9.27;;;5.20;99.90;;;;;;5036675;28;20621;-86
2022/10/12 00:29:28;;;;;;;19.70;8.40;;;5.10;99.90;;;;;;5036530;28;20695;-85
2022/10/12 00:31:53;;;;;;;20.57;9.27;;;5.00;99.90;;;;;;5020050;28;20274;-85
2022/10/12 00:34:19;;;;;;;22.23;8.63;;;5.00;99.90;;;;;;5036388;28;20179;-85
2022/10/12 00:36:44;;;;;;;14.37;8.33;;;5.00;99.90;;;;;;5036124;28;20249;-86
2022/10/12 00:39:10;;;;;;;19.90;7.30;;;4.90;99.90;;;;;;5036010;28;20699;-86
2022/10/12 00:41:40;;;;;;;19.23;8.50;;;4.90;99.90;;;;;;5036002;28;20175;-86
2022/10/12 00:44:38;;;;;;;12.50;8.00;;;4.80;99.90;;;;;;5053714;28;20179;-85
2022/10/12 00:47:12;;;;;;;13.17;6.57;;;4.90;99.90;;;;;;5053831;28;20314;-85
2022/10/12 00:49:38;;;;;;;12.00;7.70;;;4.90;99.90;;;;;;5053850;28;20209;-86
2022/10/12 00:52:10;;;;;;;14.60;7.33;;;4.90;99.90;;;;;;5036563;28;20195;-86
2022/10/12 00:54:40;;;;;;;15.47;8.23;;;4.90;99.90;;;;;;5054053;28;20180;-86
2022/10/12 00:57:08;;;;;;;20.03;10.50;;;4.80;99.90;;;;;;5036383;28;20271;-86
2022/10/12 00:59:53;;;;;;;24.83;12.20;;;4.70;99.90;;;;;;5035950;28;20238;-86
2022/10/12 01:02:21;;;;;;;21.70;11.10;;;4.70;99.90;;;;;;5035692;28;20179;-86
2022/10/12 01:04:47;;;;;;;19.90;10.50;;;4.70;99.90;;;;;;5035754;28;20183;-85
2022/10/12 01:07:13;;;;;;;23.37;11.77;;;4.70;99.90;;;;;;5035879;28;20176;-86
2022/10/12 01:09:39;;;;;;;25.43;10.27;;;4.70;99.90;;;;;;5035308;28;20208;-85
2022/10/12 01:12:06;;;;;;;20.33;10.23;;;4.70;99.90;;;;;;5019471;28;20180;-85
2022/10/12 01:14:33;;;;;;;21.97;8.40;;;4.80;99.90;;;;;;5035995;28;20176;-86
2022/10/12 01:17:04;;;;;;;17.87;9.10;;;4.80;99.90;;;;;;5035901;28;20216;-85
2022/10/12 01:19:49;;;;;;;25.90;10.63;;;4.80;99.90;;;;;;5035448;28;20544;-86
2022/10/12 01:22:19;;;;;;;20.80;7.90;;;4.80;99.90;;;;;;5035536;28;20186;-87
2022/10/12 01:24:48;;;;;;;12.23;7.10;;;4.80;99.90;;;;;;5036091;28;20557;-86
2022/10/12 01:27:32;;;;;;;13.33;7.00;;;4.80;99.90;;;;;;5035992;28;20513;-86
2022/10/12 01:30:06;;;;;;;12.67;6.53;;;4.80;99.90;;;;;;5053391;28;20203;-85
2022/10/12 01:32:34;;;;;;;11.63;6.33;;;4.70;99.90;;;;;;5035320;28;20176;-85
2022/10/12 01:35:24;;;;;;;24.33;6.37;;;4.70;99.90;;;;;;5035929;28;20180;-85
2022/10/12 01:38:08;;;;;;;16.83;6.47;;;4.60;99.90;;;;;;5053534;28;20179;-85
2022/10/12 01:40:47;;;;;;;13.93;6.20;;;4.60;99.90;;;;;;5035590;28;20686;-86
2022/10/12 01:43:17;;;;;;;14.37;6.17;;;4.60;99.90;;;;;;5035641;28;20183;-85
2022/10/12 01:45:42;;;;;;;15.10;6.20;;;4.60;99.90;;;;;;5053392;28;20168;-85
2022/10/12 01:48:08;;;;;;;14.90;6.90;;;4.70;99.90;;;;;;5035538;28;20183;-85
2022/10/12 01:50:51;;;;;;;13.80;6.53;;;4.70;99.90;;;;;;5035063;28;20215;-85
2022/10/12 01:53:34;;;;;;;16.10;6.13;;;4.60;99.90;;;;;;5035429;28;20180;-85
2022/10/12 01:56:06;;;;;;;12.20;6.13;;;4.60;99.90;;;;;;5052893;28;20275;-85
2022/10/12 01:58:53;;;;;;;15.90;6.50;;;4.60;99.90;;;;;;5052756;28;20175;-85
2022/10/12 02:01:38;;;;;;;14.13;6.07;;;4.70;99.90;;;;;;5052774;28;20194;-89
2022/10/12 02:04:20;;;;;;;10.70;5.93;;;4.70;99.90;;;;;;5035349;28;20211;-85
2022/10/12 02:06:57;;;;;;;18.47;8.00;;;4.90;99.90;;;;;;5054912;28;20167;-87
2022/10/12 02:09:32;;;;;;;12.03;6.33;;;4.70;99.90;;;;;;5056074;28;20195;-86
2022/10/12 02:12:03;;;;;;;13.00;6.67;;;4.80;99.90;;;;;;5054843;28;20685;-85
2022/10/12 02:14:34;;;;;;;20.60;8.17;;;4.70;99.90;;;;;;5035262;28;20194;-86
2022/10/12 02:17:03;;;;;;;11.90;7.00;;;4.80;99.90;;;;;;5035272;28;20180;-86
2022/10/12 02:19:34;;;;;;;13.70;7.27;;;4.80;99.90;;;;;;5052587;28;20184;-86
2022/10/12 02:22:03;;;;;;;11.77;7.17;;;4.80;99.90;;;;;;5021122;28;20202;-86
2022/10/12 02:24:31;;;;;;;10.43;6.70;;;4.70;99.90;;;;;;5056324;28;20267;-85
2022/10/12 02:26:58;;;;;;;12.67;6.23;;;4.70;99.90;;;;;;5038765;28;20194;-85
2022/10/12 02:29:37;;;;;;;11.83;6.13;;;4.60;99.90;;;;;;5038389;28;20268;-86
2022/10/12 02:32:16;;;;;;;10.10;5.23;;;4.60;99.90;;;;;;5056360;28;20179;-85
2022/10/12 02:35:13;;;;;;;18.07;7.77;;;4.60;99.90;;;;;;5038790;28;20179;-85
2022/10/12 02:37:50;;;;;;;10.47;5.83;;;4.50;99.90;;;;;;5038780;28;20179;-85
2022/10/12 02:40:40;;;;;;;15.23;6.57;;;4.50;99.90;;;;;;5038722;28;20195;-85
2022/10/12 02:43:28;;;;;;;15.17;6.43;;;4.40;99.90;;;;;;5056302;28;20574;-85
2022/10/12 02:45:57;;;;;;;15.40;6.00;;;4.40;99.90;;;;;;5038102;28;20198;-85
2022/10/12 02:48:24;;;;;;;17.43;7.20;;;4.40;99.90;;;;;;5038854;28;20230;-85
2022/10/12 02:50:56;;;;;;;15.30;6.20;;;4.40;99.90;;;;;;5021391;28;20219;-85
2022/10/12 02:53:24;;;;;;;12.17;5.87;;;4.40;99.90;;;;;;5038282;28;20194;-85
2022/10/12 02:55:52;;;;;;;13.87;6.57;;;4.30;99.90;;;;;;5062128;28;20179;-84
2022/10/12 02:58:19;;;;;;;12.70;6.83;;;4.30;99.90;;;;;;5065787;28;20240;-85
2022/10/12 03:00:44;;;;;;;17.10;7.17;;;4.30;99.90;;;;;;5043448;28;20202;-86
2022/10/12 03:03:10;;;;;;;11.13;6.43;;;4.30;99.90;;;;;;5058150;28;20183;-84
2022/10/12 03:05:36;;;;;;;13.30;6.67;;;4.30;99.90;;;;;;5056494;28;20187;-85
2022/10/12 03:08:02;;;;;;;10.47;6.17;;;4.30;99.90;;;;;;5021629;28;20257;-85
2022/10/12 03:10:27;;;;;;;11.63;6.93;;;4.30;99.90;;;;;;5021244;28;20239;-88
2022/10/12 03:12:53;;;;;;;9.60;5.93;;;4.20;99.90;;;;;;5055811;28;20561;-85
2022/10/12 03:15:19;;;;;;;17.37;7.03;;;4.30;99.90;;;;;;5021385;28;20203;-85
2022/10/12 03:17:44;;;;;;;12.80;6.93;;;4.30;99.90;;;;;;5033758;28;20549;-86
2022/10/12 03:20:11;;;;;;;15.20;7.77;;;4.30;99.90;;;;;;5041098;28;20225;-86
2022/10/12 03:22:36;;;;;;;15.33;7.20;;;4.30;99.90;;;;;;5057165;28;20197;-86
2022/10/12 03:25:02;;;;;;;22.40;8.47;;;4.20;99.90;;;;;;5040806;28;20182;-86
2022/10/12 03:27:28;;;;;;;14.40;7.00;;;4.20;99.90;;;;;;5056845;28;20179;-85
2022/10/12 03:29:54;;;;;;;12.80;7.00;;;4.20;99.90;;;;;;5023825;28;20268;-85
2022/10/12 03:32:19;;;;;;;11.23;6.37;;;4.10;99.90;;;;;;5021045;28;20629;-85
2022/10/12 03:34:45;;;;;;;15.60;6.60;;;4.10;99.90;;;;;;5037457;28;20184;-86
2022/10/12 03:37:10;;;;;;;8.90;5.57;;;4.00;99.90;;;;;;5037638;28;20187;-86
2022/10/12 03:39:37;;;;;;;8.53;4.97;;;4.00;99.90;;;;;;5020847;28;20195;-86
2022/10/12 03:42:03;;;;;;;9.80;5.97;;;4.00;99.90;;;;;;5054954;28;20188;-84
2022/10/12 03:44:28;;;;;;;9.53;6.37;;;4.00;99.90;;;;;;5037418;28;20268;-85
2022/10/12 03:46:54;;;;;;;6.87;4.83;;;4.00;99.90;;;;;;5036998;28;20304;-85
2022/10/12 03:49:20;;;;;;;15.90;6.43;;;4.00;99.90;;;;;;5054843;28;20238;-85
2022/10/12 03:51:45;;;;;;;7.20;5.03;;;3.90;99.90;;;;;;5036757;28;20714;-85
2022/10/12 03:54:11;;;;;;;11.27;5.80;;;4.00;99.90;;;;;;5020801;28;20184;-85
2022/10/12 03:56:37;;;;;;;10.63;5.87;;;4.00;99.90;;;;;;5036995;28;20189;-87
2022/10/12 03:59:03;;;;;;;16.23;6.20;;;3.90;99.90;;;;;;5054679;28;20262;-86
2022/10/12 04:01:28;;;;;;;15.30;6.77;;;4.00;99.90;;;;;;5036779;28;20248;-85
2022/10/12 04:03:54;;;;;;;8.53;5.53;;;3.90;99.90;;;;;;5037247;28;20195;-86
2022/10/12 04:06:20;;;;;;;18.47;5.97;;;3.80;99.90;;;;;;5020120;28;20186;-86
2022/10/12 04:08:46;;;;;;;15.80;6.17;;;;;;;;;;5054612;28;20211;-86
2022/10/12 04:11:11;;;;;;;14.87;7.07;;;3.70;99.90;;;;;;5036642;28;20209;-86
2022/10/12 04:13:37;;;;;;;10.10;6.43;;;3.70;99.90;;;;;;5055491;28;20182;-87
2022/10/12 04:16:08;;;;;;;9.27;5.60;;;3.70;99.90;;;;;;5060850;28;20186;-86
2022/10/12 04:18:33;;;;;;;14.13;5.57;;;3.70;99.90;;;;;;5094863;28;20630;-85
2022/10/12 04:21:00;;;;;;;22.10;8.10;;;3.60;99.90;;;;;;5057315;28;20192;-85
2022/10/12 04:23:26;;;;;;;12.00;6.77;;;3.60;99.90;;;;;;5073991;28;20186;-85
2022/10/12 04:25:51;;;;;;;14.47;6.90;;;3.60;99.90;;;;;;5039475;28;20526;-85
2022/10/12 04:28:17;;;;;;;17.03;6.37;;;3.60;99.90;;;;;;5039888;28;20214;-85
2022/10/12 04:30:44;;;;;;;14.67;7.63;;;3.70;99.90;;;;;;5055312;28;20218;-86
2022/10/12 04:33:10;;;;;;;18.17;6.77;;;3.70;99.90;;;;;;5055584;28;20655;-85
2022/10/12 04:35:36;;;;;;;9.27;6.67;;;3.60;99.90;;;;;;5040306;28;20206;-85
2022/10/12 04:38:02;;;;;;;14.87;7.17;;;3.60;99.90;;;;;;5074391;28;20639;-85
2022/10/12 04:40:27;;;;;;;11.07;5.97;;;3.50;99.90;;;;;;5056014;28;20239;-84
2022/10/12 04:42:54;;;;;;;12.83;7.17;;;3.60;99.90;;;;;;5056316;28;20191;-84
2022/10/12 04:45:20;;;;;;;10.87;6.20;;;3.60;99.90;;;;;;5056158;28;20183;-84
2022/10/12 04:47:46;;;;;;;20.33;6.50;;;3.60;99.90;;;;;;5038537;28;20234;-84
2022/10/12 04:50:12;;;;;;;12.93;8.47;;;3.60;99.90;;;;;;5039404;28;20218;-84
2022/10/12 04:52:37;;;;;;;12.10;6.40;;;3.60;99.90;;;;;;5054260;28;20187;-85
2022/10/12 04:55:03;;;;;;;10.20;5.83;;;3.60;99.90;;;;;;5019361;28;20184;-84
2022/10/12 04:57:29;;;;;;;13.53;6.90;;;3.60;99.90;;;;;;5059364;28;20190;-84
2022/10/12 04:59:55;;;;;;;15.50;6.47;;;3.50;99.90;;;;;;5041927;28;20194;-85
2022/10/12 05:02:20;;;;;;;11.93;7.10;;;3.50;99.90;;;;;;5053357;28;20780;-85
2022/10/12 05:04:46;;;;;;;12.13;6.80;;;3.50;99.90;;;;;;5060196;28;20197;-84
2022/10/12 05:07:12;;;;;;;15.47;6.97;;;3.60;99.90;;;;;;5042104;28;20189;-87
2022/10/12 05:09:37;;;;;;;17.83;7.63;;;3.60;99.90;;;;;;5042694;28;20219;-85
2022/10/12 05:12:04;;;;;;;11.57;6.73;;;3.70;99.90;;;;;;5046513;28;20280;-86
2022/10/12 05:14:29;;;;;;;18.40;6.27;;;3.70;99.90;;;;;;5044898;28;20655;-87
2022/10/12 05:16:55;;;;;;;10.57;6.63;;;3.70;99.90;;;;;;5036868;28;20263;-86
2022/10/12 05:19:21;;;;;;;13.73;7.60;;;3.70;99.90;;;;;;5060776;28;20670;-85
2022/10/12 05:21:47;;;;;;;21.43;8.33;;;3.70;99.90;;;;;;5040266;28;20186;-85
2022/10/12 05:24:12;;;;;;;19.77;10.20;;;3.80;99.90;;;;;;5065462;28;20190;-86
2022/10/12 05:26:38;;;;;;;17.93;7.97;;;3.80;99.90;;;;;;5038170;28;20694;-85
2022/10/12 05:29:04;;;;;;;15.20;7.30;;;3.80;99.90;;;;;;5064709;28;20614;-85
2022/10/12 05:31:29;;;;;;;11.13;7.40;;;3.90;99.90;;;;;;5052876;28;20643;-85
2022/10/12 05:33:55;;;;;;;14.83;6.37;;;3.90;99.90;;;;;;5055736;28;20643;-86
2022/10/12 05:36:21;;;;;;;20.70;8.10;;;4.00;99.90;;;;;;5055622;28;20179;-85
2022/10/12 05:38:47;;;;;;;25.90;7.43;;;4.00;99.90;;;;;;5072045;28;20595;-87
2022/10/12 05:41:13;;;;;;;16.77;8.00;;;4.10;99.90;;;;;;5039035;28;20179;-87
2022/10/12 05:43:39;;;;;;;13.17;6.63;;;4.10;99.90;;;;;;5055723;28;20179;-86
2022/10/12 05:46:04;;;;;;;15.67;6.67;;;4.20;99.90;;;;;;5038156;28;20584;-86
2022/10/12 05:48:30;;;;;;;16.03;7.67;;;4.30;99.90;;;;;;5073243;28;20187;-85
2022/10/12 05:50:57;;;;;;;10.97;6.80;;;4.40;99.90;;;;;;5073028;28;20215;-85
2022/10/12 05:53:22;;;;;;;14.83;5.97;;;4.40;99.90;;;;;;5039000;28;20632;-85
2022/10/12 05:55:56;;;;;;;9.00;6.17;;;4.50;99.90;;;;;;5055431;28;20189;-88
2022/10/12 05:58:23;;;;;;;11.30;6.67;;;4.60;99.90;;;;;;5059599;28;20210;-85
2022/10/12 06:00:49;;;;;;;18.27;6.63;;;4.60;99.90;;;;;;5060003;28;20183;-89
2022/10/12 06:03:15;;;;;;;14.47;7.47;;;4.70;99.90;;;;;;5077784;28;20183;-86
2022/10/12 06:05:42;;;;;;;15.00;7.93;;;4.80;99.90;;;;;;5059555;28;20633;-85
2022/10/12 06:08:08;;;;;;;24.77;11.13;;;4.80;99.90;;;;;;5042725;28;20178;-85
2022/10/12 06:10:35;;;;;;;26.57;11.30;;;4.90;99.90;;;;;;5059551;28;20268;-86
2022/10/12 06:13:01;;;;;;;20.57;9.53;;;5.00;99.90;;;;;;5077208;28;20189;-85
2022/10/12 06:15:27;;;;;;;11.63;7.80;;;5.00;99.90;;;;;;5059633;28;20183;-86
2022/10/12 06:17:53;;;;;;;22.63;8.43;;;5.10;99.90;;;;;;5078932;28;20206;-86
2022/10/12 06:20:18;;;;;;;16.63;8.63;;;5.10;99.90;;;;;;5043408;28;20187;-85
2022/10/12 06:22:44;;;;;;;16.73;9.43;;;5.20;99.90;;;;;;5079251;28;20187;-86
2022/10/12 06:25:10;;;;;;;14.17;7.97;;;5.30;99.90;;;;;;5042980;28;20191;-85
2022/10/12 06:27:35;;;;;;;18.43;8.07;;;5.40;99.90;;;;;;5042720;28;20186;-86
2022/10/12 06:30:01;;;;;;;16.50;7.47;;;5.50;99.90;;;;;;5059099;28;20675;-85
2022/10/12 06:32:27;;;;;;;16.53;7.87;;;5.60;99.90;;;;;;5058817;28;20662;-85
2022/10/12 06:34:52;;;;;;;16.07;7.30;;;5.70;99.90;;;;;;5059071;28;20194;-86
2022/10/12 06:37:18;;;;;;;9.57;5.60;;;5.70;99.90;;;;;;5059838;28;20179;-85
2022/10/12 06:39:44;;;;;;;35.13;9.13;;;5.80;99.90;;;;;;5048975;28;20182;-83
2022/10/12 06:42:10;;;;;;;13.17;6.63;;;5.80;99.90;;;;;;5082707;28;20179;-84
2022/10/12 06:44:36;;;;;;;18.00;6.77;;;5.80;99.90;;;;;;5062953;28;20179;-85
2022/10/12 06:47:02;;;;;;;11.20;6.40;;;5.90;99.90;;;;;;5059127;28;20233;-85
2022/10/12 06:49:27;;;;;;;17.87;6.53;;;5.80;99.90;;;;;;5059771;28;20211;-86
2022/10/12 06:51:53;;;;;;;14.30;7.50;;;5.90;99.90;;;;;;5043833;28;20202;-86
2022/10/12 06:54:19;;;;;;;17.27;7.27;;;6.00;99.90;;;;;;5058682;28;20670;-86
2022/10/12 06:56:44;;;;;;;13.27;7.33;;;6.10;99.90;;;;;;5041921;28;20551;-86
2022/10/12 06:59:11;;;;;;;22.37;7.63;;;6.20;99.90;;;;;;5058481;28;20179;-86
2022/10/12 07:01:37;;;;;;;17.50;7.37;;;6.30;99.90;;;;;;5042483;28;20206;-85
2022/10/12 07:04:03;;;;;;;20.83;7.27;;;6.30;99.90;;;;;;5076602;28;20171;-86
2022/10/12 07:06:29;;;;;;;21.93;6.60;;;6.30;99.90;;;;;;5041551;28;20240;-87
2022/10/12 07:08:55;;;;;;;15.17;6.60;;;6.50;99.90;;;;;;5040553;28;20187;-87
2022/10/12 07:11:21;;;;;;;15.60;5.73;;;6.60;99.90;;;;;;5077328;28;20180;-87
2022/10/12 07:13:46;;;;;;;17.53;6.20;;;6.70;99.90;;;;;;5058349;28;20186;-87
2022/10/12 07:16:12;;;;;;;27.00;8.77;;;6.90;99.90;;;;;;5075972;28;20179;-87
2022/10/12 07:18:38;;;;;;;14.80;6.30;;;7.00;99.90;;;;;;5058195;28;20191;-87
2022/10/12 07:21:04;;;;;;;19.00;7.53;;;7.10;99.90;;;;;;5041890;28;20191;-87
2022/10/12 07:23:31;;;;;;;14.97;7.20;;;7.20;99.90;;;;;;5041509;28;20654;-87
2022/10/12 07:25:56;;;;;;;15.13;7.27;;;7.30;99.90;;;;;;5075418;28;20186;-87
2022/10/12 07:28:22;;;;;;;22.10;7.80;;;7.40;99.90;;;;;;5057954;28;20179;-87
2022/10/12 07:30:49;;;;;;;17.47;8.17;;;7.60;99.90;;;;;;5075616;28;20207;-87
2022/10/12 07:33:14;;;;;;;16.73;8.50;;;7.80;99.90;;;;;;5091424;28;20189;-86
2022/10/12 07:35:40;;;;;;;15.00;7.37;;;8.00;99.90;;;;;;5057609;28;20180;-86
2022/10/12 07:38:06;;;;;;;23.43;7.57;;;8.10;99.90;;;;;;5075815;28;20189;-87
2022/10/12 07:40:32;;;;;;;14.67;7.20;;;8.20;99.90;;;;;;5077354;28;20183;-87
2022/10/12 07:42:57;;;;;;;17.97;7.07;;;8.40;99.90;;;;;;5076483;28;20266;-87
2022/10/12 07:45:24;;;;;;;21.17;7.03;;;8.50;99.90;;;;;;5075590;28;20191;-87
2022/10/12 07:51:11;;;;;;;17.47;7.27;;;8.70;99.90;;;;;;5075349;28;20233;-87
2022/10/12 07:53:38;;;;;;;16.73;7.47;;;8.80;99.90;;;;;;5075538;28;20215;-87
2022/10/12 07:56:06;;;;;;;14.67;7.43;;;8.90;99.90;;;;;;5057155;28;20172;-87
2022/10/12 08:01:58;;;;;;;12.47;7.57;;;9.10;99.90;;;;;;5074963;28;20538;-83
2022/10/12 08:04:24;;;;;;;16.97;6.53;;;9.20;99.90;;;;;;5039679;28;20286;-86
2022/10/12 08:06:50;;;;;;;15.87;7.10;;;9.40;99.90;;;;;;5040212;28;20221;-85
2022/10/12 08:09:15;;;;;;;12.27;6.73;;;9.40;99.90;;;;;;5056076;28;20275;-86
2022/10/12 08:11:41;;;;;;;12.93;6.07;;;9.50;99.90;;;;;;5040074;28;20215;-85
2022/10/12 08:14:13;;;;;;;13.27;4.73;;;9.70;99.90;;;;;;5039716;28;20287;-85
2022/10/12 08:16:40;;;;;;;11.23;5.50;;;9.70;99.90;;;;;;5056872;28;20179;-86
2022/10/12 08:19:06;;;;;;;8.77;5.00;;;9.80;99.90;;;;;;5055793;28;20237;-85
2022/10/12 08:21:31;;;;;;;8.27;5.70;;;9.90;99.90;;;;;;5056605;28;20577;-86
2022/10/12 08:23:57;;;;;;;11.60;5.80;;;9.90;99.90;;;;;;5056843;28;20258;-86
2022/10/12 08:26:23;;;;;;;12.50;6.37;;;10.00;99.90;;;;;;5056483;28;20179;-87
2022/10/12 08:28:48;;;;;;;11.83;5.57;;;10.00;99.90;;;;;;5040049;28;20544;-87
2022/10/12 08:31:16;;;;;;;13.50;6.03;;;10.10;99.90;;;;;;5019553;28;20310;-88
2022/10/12 08:33:42;;;;;;;14.50;6.23;;;10.10;99.90;;;;;;5055184;28;20195;-88
2022/10/12 08:36:08;;;;;;;14.10;6.20;;;10.20;99.90;;;;;;5036801;28;20617;-87
2022/10/12 08:38:42;;;;;;;11.50;6.50;;;10.30;99.90;;;;;;5037545;28;20183;-89
2022/10/12 08:41:32;;;;;;;15.00;7.30;;;10.40;99.90;;;;;;5054043;28;20183;-88
2022/10/12 08:44:28;;;;;;;12.77;7.03;;;10.50;99.90;;;;;;5050068;28;20183;-87
2022/10/12 08:46:59;;;;;;;12.75;5.88;;;10.40;99.90;;;;;;5056118;28;20326;-87
2022/10/12 08:49:27;;;;;;;12.13;5.97;;;10.50;99.90;;;;;;5040267;28;20265;-88
2022/10/12 08:51:59;;;;;;;16.87;6.90;;;10.60;99.90;;;;;;5075416;28;20197;-88
2022/10/12 08:54:32;;;;;;;9.03;5.10;;;10.60;99.90;;;;;;5057030;28;20296;-89
2022/10/12 08:56:58;;;;;;;8.63;5.43;;;10.70;99.90;;;;;;5056495;28;20179;-87
2022/10/12 08:59:27;;;;;;;8.90;5.05;;;10.80;99.90;;;;;;5056336;28;20266;-88
2022/10/12 09:05:39;;;;;;;10.00;5.60;;;9.00;99.90;;;;;;5073936;28;20173;-87
2022/10/12 09:08:15;;;;;;;8.57;4.88;;;11.20;99.90;;;;;;5056091;28;20177;-89
2022/10/12 09:10:46;;;;;;;10.73;5.07;;;11.30;99.90;;;;;;5055852;28;20230;-88
2022/10/12 09:13:29;;;;;;;12.20;4.80;;;10.30;99.90;;;;;;5042957;28;20180;-88
2022/10/12 09:16:18;;;;;;;10.25;4.97;;;11.50;99.90;;;;;;5036298;28;20176;-88
2022/10/12 09:18:51;;;;;;;15.25;5.25;;;11.60;99.90;;;;;;5036996;28;20229;-89
2022/10/12 09:24:47;;;;;;;11.48;5.00;;;11.80;99.90;;;;;;5054597;28;20632;-88
2022/10/12 09:31:06;;;;;;;11.25;6.28;;;12.20;99.90;;;;;;5054398;28;20576;-89
2022/10/12 09:33:38;;;;;;;8.23;5.18;;;12.30;99.90;;;;;;5037271;28;20184;-88
2022/10/12 09:36:04;;;;;;;10.20;4.80;;;12.50;99.90;;;;;;5036901;28;20188;-89
2022/10/12 09:38:30;;;;;;;6.93;4.05;;;12.60;99.90;;;;;;5037024;28;20644;-90
2022/10/12 09:40:56;;;;;;;10.30;4.25;;;12.70;99.90;;;;;;5020731;28;20182;-87
2022/10/12 09:43:21;;;;;;;9.38;4.72;;;12.90;99.90;;;;;;5022288;28;20187;-91
2022/10/12 09:45:49;;;;;;;6.57;2.97;;;13.00;99.90;;;;;;5038009;28;20243;-85
2022/10/12 09:48:33;;;;;;;11.13;3.63;;;13.00;99.90;;;;;;5022473;28;20239;-86
2022/10/12 09:51:02;;;;;;;4.20;2.97;;;13.20;99.90;;;;;;5024861;28;20270;-88
2022/10/12 09:53:39;;;;;;;6.60;3.20;;;13.40;99.90;;;;;;5023304;28;20194;-88
2022/10/12 09:56:05;;;;;;;10.38;3.40;;;13.50;99.90;;;;;;5038959;28;20214;-88
2022/10/12 09:58:38;;;;;;;6.63;3.25;;;13.60;99.90;;;;;;5056914;28;20180;-88
2022/10/12 10:01:43;;;;;;;7.53;2.80;;;13.80;99.90;;;;;;5040360;28;20190;-86
2022/10/12 10:04:35;;;;;;;6.80;1.50;;;13.90;99.90;;;;;;5039795;28;20275;-86
2022/10/12 10:07:26;;;;;;;5.07;1.90;;;13.90;99.90;;;;;;5019240;28;20192;-87
2022/10/12 10:10:20;;;;;;;4.70;2.50;;;13.70;99.90;;;;;;5040141;28;20208;-88
2022/10/12 10:13:00;;;;;;;1.58;0.82;;;13.40;99.90;;;;;;5042450;28;20247;-89
2022/10/12 10:15:34;;;;;;;7.75;1.25;;;13.20;99.90;;;;;;5025090;28;20643;-88
2022/10/12 10:18:02;;;;;;;3.10;1.10;;;13.00;99.90;;;;;;5056218;28;20156;-89
2022/10/12 10:20:31;;;;;;;5.20;1.50;;;12.90;99.90;;;;;;5038029;28;20755;-88
2022/10/12 10:22:58;;;;;;;4.13;1.65;;;12.80;99.90;;;;;;5053641;28;20171;-91
2022/10/12 10:25:25;;;;;;;3.38;0.70;;;12.70;99.90;;;;;;5059196;28;20173;-96
2022/10/12 10:28:20;;;;;;;2.35;1.17;;;12.60;99.90;;;;;;5041833;28;20259;-85
2022/10/12 10:31:01;;;;;;;2.20;1.20;;;12.70;99.90;;;;;;5056473;28;20203;-86
2022/10/12 10:33:27;;;;;;;1.58;0.95;;;12.90;99.90;;;;;;5056600;28;20267;-88
2022/10/12 10:36:03;;;;;;;6.47;1.58;;;13.00;99.90;;;;;;5038686;28;20200;-87
2022/10/12 10:38:54;;;;;;;3.20;1.27;;;13.10;99.90;;;;;;5044566;28;20194;-86
2022/10/12 10:41:33;;;;;;;6.13;1.33;;;13.20;99.90;;;;;;5056396;28;20271;-87
2022/10/12 10:44:05;;;;;;;11.25;2.15;;;13.40;99.90;;;;;;5044844;28;20648;-88
2022/10/12 10:46:33;;;;;;;4.75;1.08;;;13.80;99.90;;;;;;5054091;28;20255;-89
2022/10/12 10:49:07;;;;;;;3.85;1.98;;;14.40;99.90;;;;;;5036609;28;20172;-88
2022/10/12 10:51:50;;;;;;;1.33;0.73;;;14.20;99.90;;;;;;5038003;28;20279;-89
2022/10/12 10:54:25;;;;;;;2.38;1.35;;;14.50;99.90;;;;;;5036432;28;20180;-88
2022/10/12 10:57:12;;;;;;;1.73;0.93;;;14.70;99.90;;;;;;5053119;28;20176;-90
2022/10/12 10:59:37;;;;;;;3.60;0.85;;;15.00;99.90;;;;;;5036128;28;20247;-88
2022/10/12 11:02:39;;;;;;;4.68;1.38;;;14.60;98.60;;;;;;5053077;28;20177;-89
2022/10/12 11:05:12;;;;;;;2.83;1.55;;;14.80;98.00;;;;;;5037554;28;20644;-87
2022/10/12 11:07:44;;;;;;;8.35;1.48;;;14.60;99.10;;;;;;5051058;28;20212;-87
2022/10/12 11:10:23;;;;;;;2.72;1.42;;;14.90;98.40;;;;;;5034857;28;20228;-88
2022/10/12 11:12:58;;;;;;;2.83;1.90;;;15.00;98.50;;;;;;5036492;28;20196;-89
2022/10/12 11:15:45;;;;;;;4.47;1.20;;;14.70;97.00;;;;;;5035407;28;20218;-90
2022/10/12 11:18:16;;;;;;;5.88;2.08;;;14.50;99.10;;;;;;5036048;28;20272;-89
2022/10/12 11:21:01;;;;;;;9.30;3.28;;;14.70;99.90;;;;;;5056028;28;20652;-87
2022/10/12 11:23:37;;;;;;;1.70;0.98;;;14.80;99.50;;;;;;5045001;28;20710;-87
2022/10/12 11:26:09;;;;;;;1.60;1.27;;;14.70;98.90;;;;;;5038920;28;20203;-89
2022/10/12 11:28:41;;;;;;;8.10;2.72;;;14.60;98.90;;;;;;5052338;28;20180;-89
2022/10/12 11:34:24;;;;;;;6.80;3.25;;;14.40;96.40;;;;;;5035903;28;20287;-89
2022/10/12 11:36:53;;;;;;;6.90;2.38;;;14.30;97.30;;;;;;5034296;28;20188;-89
2022/10/12 11:39:37;;;;;;;4.63;1.73;;;14.00;96.90;;;;;;5035880;28;20176;-88
2022/10/12 11:42:06;;;;;;;3.85;1.85;;;13.90;96.90;;;;;;5035465;28;20534;-88
2022/10/12 11:44:46;;;;;;;2.65;1.67;;;13.70;97.60;;;;;;5033998;28;20630;-89
2022/10/12 11:47:28;;;;;;;3.38;1.75;;;13.60;98.70;;;;;;5007428;28;20235;-90
2022/10/12 11:50:34;;;;;;;2.15;1.35;;;13.50;99.20;;;;;;5014478;28;20216;-86
2022/10/12 11:53:02;;;;;;;2.67;1.67;;;13.40;99.90;;;;;;5013855;28;20232;-87
2022/10/12 11:55:42;;;;;;;6.25;1.95;;;13.30;99.80;;;;;;5015198;28;20220;-88
2022/10/12 11:58:28;;;;;;;2.70;1.35;;;13.30;99.90;;;;;;5015577;28;20165;-88
2022/10/12 12:01:11;;;;;;;4.18;1.80;;;13.30;99.90;;;;;;5014574;28;20288;-89
2022/10/12 12:03:46;;;;;;;3.28;1.85;;;13.40;99.90;;;;;;5018689;28;20180;-89
2022/10/12 12:06:30;;;;;;;3.13;1.70;;;13.10;99.60;;;;;;5018325;28;20184;-89
2022/10/12 12:09:04;;;;;;;5.93;1.40;;;14.00;99.90;;;;;;5014400;28;20220;-90
2022/10/12 12:11:32;;;;;;;4.53;1.30;;;14.00;96.50;;;;;;5013902;28;20235;-90
2022/10/12 12:14:27;;;;;;;6.07;2.80;;;14.40;96.40;;;;;;5014836;28;20184;-91
2022/10/12 12:20:43;;;;;;;1.85;1.10;;;14.40;93.70;;;;;;4980762;28;20228;-91
2022/10/12 12:26:56;;;;;;;;;;;;;;;;;;;;;
2022/10/12 12:33:26;;;;;;;;;;;;;;;;;;;;;
2022/10/12 12:36:37;;;;;;;1.83;0.90;;;15.50;93.60;;;;;;4955778;29;20184;-92
2022/10/12 12:39:05;;;;;;;3.00;0.95;;;15.70;92.80;;;;;;4981983;28;20199;-91
2022/10/12 12:41:55;;;;;;;3.85;1.40;;;15.70;92.70;;;;;;5034370;28;20621;-92
2022/10/12 12:44:35;;;;;;;2.80;1.75;;;15.30;92.30;;;;;;5034921;28;20177;-91
2022/10/12 12:47:01;;;;;;;4.18;1.40;;;15.00;94.90;;;;;;5052711;28;20258;-91
2022/10/12 12:49:47;;;;;;;3.13;1.58;;;14.80;95.40;;;;;;5056182;28;20241;-92
2022/10/12 12:52:36;;;;;;;3.33;1.75;;;15.50;97.60;;;;;;5075399;28;20205;-91
2022/10/12 12:55:08;;;;;;;5.78;1.38;;;14.40;97.20;;;;;;5056581;28;20176;-90
2022/10/12 12:57:56;;;;;;;6.75;2.25;;;14.40;99.90;;;;;;5056389;28;20232;-90
2022/10/12 13:01:02;;;;;;;4.38;2.13;;;14.20;99.90;;;;;;5055995;28;20195;-91
2022/10/12 13:03:40;;;;;;;4.22;1.67;;;14.40;99.30;;;;;;5056892;28;20194;-92
2022/10/12 13:06:37;;;;;;;4.30;2.75;;;13.90;99.00;;;;;;5060074;28;20240;-90
2022/10/12 13:09:11;;;;;;;2.80;1.25;;;13.90;99.90;;;;;;5059601;28;20262;-90
2022/10/12 13:11:46;;;;;;;2.70;1.63;;;13.40;99.90;;;;;;5056837;28;20191;-90
2022/10/12 13:14:36;;;;;;;6.68;2.15;;;14.00;99.90;;;;;;5056782;28;20189;-89
2022/10/12 13:17:15;;;;;;;2.97;1.40;;;13.90;99.90;;;;;;5056807;28;20174;-88
2022/10/12 13:19:41;;;;;;;3.20;1.67;;;13.80;99.90;;;;;;5074492;28;20257;-89
2022/10/12 13:22:28;;;;;;;2.50;1.83;;;13.70;99.90;;;;;;5039523;28;20183;-89
2022/10/12 13:25:00;;;;;;;7.65;2.28;;;13.60;99.90;;;;;;5056599;28;20266;-88
2022/10/12 13:27:41;;;;;;;4.55;1.52;;;13.80;99.90;;;;;;5056188;28;20167;-88
2022/10/12 13:30:14;;;;;;;3.17;2.13;;;13.90;99.90;;;;;;5074429;28;20195;-88
2022/10/12 13:32:43;;;;;;;3.35;2.05;;;13.30;99.90;;;;;;5061807;28;20179;-88
2022/10/12 13:35:33;;;;;;;5.13;2.17;;;13.60;99.90;;;;;;5057418;28;20931;-88
2022/10/12 13:38:23;;;;;;;6.40;2.17;;;13.40;99.90;;;;;;5053374;28;20195;-91
2022/10/12 13:41:07;;;;;;;4.60;1.88;;;14.10;99.90;;;;;;5056665;28;20168;-89